createdAt,value
2017-10-29T00:00:58.782Z,99412
2017-10-29T00:01:58.804Z,99410
2017-10-29T00:02:58.906Z,99412
2017-10-29T00:03:59.021Z,99415
2017-10-29T00:04:59.004Z,99415
2017-10-29T00:05:59.587Z,99413
2017-10-29T00:06:59.005Z,99408
2017-10-29T00:07:59.628Z,99423
2017-10-29T00:08:59.676Z,99419
2017-10-29T00:09:59.750Z,99420
2017-10-29T00:10:59.386Z,99420
2017-10-29T00:11:59.977Z,99410
2017-10-29T00:12:59.933Z,99410
2017-10-29T00:14:00.013Z,99401
2017-10-29T00:14:59.605Z,99398
2017-10-29T00:16:00.184Z,99392
2017-10-29T00:17:00.258Z,99380
2017-10-29T00:18:00.314Z,99392
2017-10-29T00:18:59.956Z,99386
2017-10-29T00:19:59.977Z,99382
2017-10-29T00:20:59.876Z,99396
2017-10-29T00:22:00.612Z,99392
2017-10-29T00:23:00.130Z,99393
2017-10-29T00:24:00.185Z,99386
2017-10-29T00:25:00.206Z,99380
2017-10-29T00:26:00.168Z,99377
2017-10-29T00:27:00.159Z,99374
2017-10-29T00:28:00.707Z,99371
2017-10-29T00:29:00.224Z,99368
2017-10-29T00:30:00.960Z,99373
2017-10-29T00:31:00.937Z,99369
2017-10-29T00:32:00.571Z,99361
2017-10-29T00:33:00.612Z,99360
2017-10-29T00:34:00.688Z,99357
2017-10-29T00:35:01.229Z,99355
2017-10-29T00:36:00.665Z,99351
2017-10-29T00:37:00.738Z,99343
2017-10-29T00:38:01.322Z,99343
2017-10-29T00:39:00.936Z,99354
2017-10-29T00:40:01.000Z,99343
2017-10-29T00:41:01.589Z,99347
2017-10-29T00:42:01.160Z,99345
2017-10-29T00:43:01.230Z,99345
2017-10-29T00:44:01.165Z,99354
2017-10-29T00:45:01.706Z,99344
2017-10-29T00:46:01.866Z,99345
2017-10-29T00:47:01.822Z,99346
2017-10-29T00:48:01.844Z,99352
2017-10-29T00:49:02.004Z,99355
2017-10-29T00:50:01.944Z,99328
2017-10-29T00:51:01.993Z,99341
2017-10-29T00:52:02.053Z,99335
2017-10-29T00:53:02.247Z,99327
2017-10-29T00:54:01.774Z,99304
2017-10-29T00:55:01.817Z,99324
2017-10-29T00:56:01.849Z,99325
2017-10-29T00:57:01.886Z,99325
2017-10-29T00:58:01.920Z,99315
2017-10-29T00:59:01.985Z,99310
2017-10-29T01:00:02.646Z,99321
2017-10-29T01:01:02.636Z,99302
2017-10-29T01:02:02.087Z,99315
2017-10-29T01:03:02.592Z,99312
2017-10-29T01:04:02.104Z,99317
2017-10-29T01:05:02.125Z,99310
2017-10-29T01:06:02.776Z,99307
2017-10-29T01:07:02.202Z,99300
2017-10-29T01:08:02.902Z,99316
2017-10-29T01:09:02.926Z,99301
2017-10-29T01:10:02.304Z,99294
2017-10-29T01:11:02.442Z,99289
2017-10-29T01:12:02.915Z,99299
2017-10-29T01:13:03.078Z,99298
2017-10-29T01:14:02.598Z,99305
2017-10-29T01:15:02.838Z,99290
2017-10-29T01:16:03.094Z,99286
2017-10-29T01:17:03.225Z,99282
2017-10-29T01:18:03.206Z,99281
2017-10-29T01:19:02.689Z,99276
2017-10-29T01:20:02.684Z,99271
2017-10-29T01:21:02.805Z,99272
2017-10-29T01:22:02.837Z,99273
2017-10-29T01:23:03.302Z,99266
2017-10-29T01:24:02.913Z,99252
2017-10-29T01:25:03.499Z,99265
2017-10-29T01:26:02.950Z,99275
2017-10-29T01:27:03.681Z,99270
2017-10-29T01:28:03.641Z,99262
2017-10-29T01:29:03.194Z,99261
2017-10-29T01:30:03.334Z,99253
2017-10-29T01:31:03.404Z,99260
2017-10-29T01:32:03.868Z,99251
2017-10-29T01:33:04.046Z,99255
2017-10-29T01:34:04.058Z,99259
2017-10-29T01:35:03.707Z,99260
2017-10-29T01:36:03.697Z,99246
2017-10-29T01:37:03.781Z,99243
2017-10-29T01:38:04.428Z,99230
2017-10-29T01:39:04.399Z,99245
2017-10-29T01:40:04.556Z,99247
2017-10-29T01:41:04.003Z,99235
2017-10-29T01:42:04.633Z,99245
2017-10-29T01:43:04.054Z,99244
2017-10-29T01:44:04.178Z,99235
2017-10-29T01:45:04.714Z,99233
2017-10-29T01:46:04.692Z,99231
2017-10-29T01:47:04.749Z,99233
2017-10-29T01:48:04.783Z,99234
2017-10-29T01:49:04.341Z,99233
2017-10-29T01:50:04.978Z,99232
2017-10-29T01:51:05.151Z,99222
2017-10-29T01:52:04.519Z,99217
2017-10-29T01:53:04.586Z,99223
2017-10-29T01:54:04.592Z,99223
2017-10-29T01:55:04.716Z,99224
2017-10-29T01:56:04.763Z,99230
2017-10-29T01:57:05.339Z,99230
2017-10-29T01:58:04.745Z,99233
2017-10-29T01:59:05.350Z,99228
2017-10-29T02:00:05.519Z,99229
2017-10-29T02:01:05.197Z,99224
2017-10-29T02:02:05.054Z,99226
2017-10-29T02:03:05.562Z,99212
2017-10-29T02:04:05.729Z,99220
2017-10-29T02:05:05.772Z,99221
2017-10-29T02:06:05.725Z,99210
2017-10-29T02:07:05.885Z,99213
2017-10-29T02:08:05.304Z,99219
2017-10-29T02:09:05.428Z,99202
2017-10-29T02:10:05.421Z,99210
2017-10-29T02:11:05.437Z,99217
2017-10-29T02:12:05.939Z,99207
2017-10-29T02:13:05.454Z,99203
2017-10-29T02:14:06.020Z,99215
2017-10-29T02:15:06.237Z,99206
2017-10-29T02:16:05.790Z,99208
2017-10-29T02:17:06.391Z,99208
2017-10-29T02:18:06.366Z,99212
2017-10-29T02:19:06.387Z,99217
2017-10-29T02:20:05.892Z,99216
2017-10-29T02:21:06.329Z,99208
2017-10-29T02:22:05.872Z,99196
2017-10-29T02:23:05.749Z,99202
2017-10-29T02:24:05.950Z,99209
2017-10-29T02:25:05.956Z,99202
2017-10-29T02:26:06.406Z,99197
2017-10-29T02:27:06.049Z,99206
2017-10-29T02:28:05.998Z,99197
2017-10-29T02:29:06.105Z,99189
2017-10-29T02:30:06.143Z,99186
2017-10-29T02:31:06.070Z,99186
2017-10-29T02:32:06.800Z,99191
2017-10-29T02:33:06.820Z,99185
2017-10-29T02:34:06.357Z,99172
2017-10-29T02:35:06.969Z,99181
2017-10-29T02:36:07.092Z,99192
2017-10-29T02:37:06.539Z,99195
2017-10-29T02:38:06.997Z,99192
2017-10-29T02:39:06.459Z,99191
2017-10-29T02:40:06.576Z,99188
2017-10-29T02:41:06.670Z,99209
2017-10-29T02:42:07.148Z,99200
2017-10-29T02:43:07.204Z,99201
2017-10-29T02:45:06.798Z,99181
2017-10-29T02:46:07.051Z,99173
2017-10-29T02:47:06.900Z,99154
2017-10-29T02:48:07.351Z,99165
2017-10-29T02:49:06.844Z,99160
2017-10-29T02:50:07.009Z,99140
2017-10-29T02:51:06.925Z,99151
2017-10-29T02:52:07.036Z,99149
2017-10-29T02:53:07.077Z,99152
2017-10-29T02:54:07.597Z,99161
2017-10-29T02:55:07.807Z,99166
2017-10-29T02:56:07.725Z,99161
2017-10-29T02:57:07.933Z,99164
2017-10-29T02:58:07.375Z,99163
2017-10-29T02:59:07.435Z,99160
2017-10-29T03:00:08.015Z,99160
2017-10-29T03:01:08.171Z,99172
2017-10-29T03:02:08.234Z,99167
2017-10-29T03:03:08.207Z,99179
2017-10-29T03:04:07.701Z,99165
2017-10-29T03:05:08.421Z,99170
2017-10-29T03:06:08.392Z,99168
2017-10-29T03:07:08.532Z,99164
2017-10-29T03:08:08.512Z,99180
2017-10-29T03:09:08.681Z,99174
2017-10-29T03:10:08.587Z,99173
2017-10-29T03:11:08.664Z,99176
2017-10-29T03:12:08.320Z,99164
2017-10-29T03:13:08.786Z,99167
2017-10-29T03:14:09.006Z,99173
2017-10-29T03:15:08.931Z,99184
2017-10-29T03:16:09.004Z,99174
2017-10-29T03:17:08.527Z,99175
2017-10-29T03:18:09.179Z,99178
2017-10-29T03:19:09.204Z,99185
2017-10-29T03:20:08.669Z,99180
2017-10-29T03:21:09.234Z,99177
2017-10-29T03:22:08.680Z,99183
2017-10-29T03:23:08.798Z,99178
2017-10-29T03:24:08.778Z,99179
2017-10-29T03:25:08.813Z,99181
2017-10-29T03:26:09.445Z,99187
2017-10-29T03:27:08.977Z,99166
2017-10-29T03:28:09.534Z,99173
2017-10-29T03:29:08.987Z,99166
2017-10-29T03:30:08.926Z,99174
2017-10-29T03:31:09.581Z,99167
2017-10-29T03:32:09.073Z,99168
2017-10-29T03:33:09.702Z,99198
2017-10-29T03:34:09.602Z,99220
2017-10-29T03:35:09.085Z,99175
2017-10-29T03:36:09.702Z,99195
2017-10-29T03:37:09.910Z,99228
2017-10-29T03:38:09.930Z,99216
2017-10-29T03:39:09.827Z,99227
2017-10-29T03:40:09.331Z,99237
2017-10-29T03:41:09.426Z,99237
2017-10-29T03:42:09.369Z,99248
2017-10-29T03:43:09.927Z,99228
2017-10-29T03:44:09.378Z,99245
2017-10-29T03:45:10.091Z,99252
2017-10-29T03:46:09.568Z,99239
2017-10-29T03:47:09.630Z,99251
2017-10-29T03:48:10.131Z,99258
2017-10-29T03:49:09.627Z,99258
2017-10-29T03:50:10.351Z,99256
2017-10-29T03:51:10.273Z,99261
2017-10-29T03:52:09.768Z,99255
2017-10-29T03:53:09.861Z,99270
2017-10-29T03:54:10.534Z,99255
2017-10-29T03:55:10.581Z,99268
2017-10-29T03:56:10.627Z,99271
2017-10-29T03:57:10.738Z,99261
2017-10-29T03:58:10.805Z,99263
2017-10-29T03:59:10.299Z,99270
2017-10-29T04:00:10.845Z,99276
2017-10-29T04:01:11.243Z,99271
2017-10-29T04:02:10.386Z,99279
2017-10-29T04:03:10.922Z,99273
2017-10-29T04:04:11.059Z,99281
2017-10-29T04:05:10.559Z,99277
2017-10-29T04:06:10.492Z,99289
2017-10-29T04:07:10.605Z,99289
2017-10-29T04:08:11.111Z,99298
2017-10-29T04:09:10.601Z,99315
2017-10-29T04:10:10.657Z,99309
2017-10-29T04:11:11.332Z,99289
2017-10-29T04:12:11.278Z,99298
2017-10-29T04:13:11.424Z,99309
2017-10-29T04:14:10.866Z,99328
2017-10-29T04:15:11.485Z,99310
2017-10-29T04:16:11.055Z,99329
2017-10-29T04:17:11.576Z,99324
2017-10-29T04:18:11.754Z,99329
2017-10-29T04:19:11.781Z,99323
2017-10-29T04:20:11.235Z,99342
2017-10-29T04:21:11.841Z,99343
2017-10-29T04:22:11.879Z,99348
2017-10-29T04:23:12.083Z,99344
2017-10-29T04:24:12.125Z,99341
2017-10-29T04:25:12.113Z,99345
2017-10-29T04:26:12.224Z,99349
2017-10-29T04:27:11.692Z,99351
2017-10-29T04:28:11.769Z,99346
2017-10-29T04:29:12.391Z,99353
2017-10-29T04:30:11.850Z,99342
2017-10-29T04:31:11.775Z,99348
2017-10-29T04:32:12.430Z,99349
2017-10-29T04:33:12.395Z,99362
2017-10-29T04:34:12.479Z,99353
2017-10-29T04:35:12.524Z,99357
2017-10-29T04:36:12.707Z,99347
2017-10-29T04:37:12.657Z,99358
2017-10-29T04:38:12.758Z,99337
2017-10-29T04:39:12.951Z,99363
2017-10-29T04:40:13.025Z,99335
2017-10-29T04:41:13.051Z,99356
2017-10-29T04:42:12.596Z,99345
2017-10-29T04:43:13.039Z,99357
2017-10-29T04:44:13.214Z,99349
2017-10-29T04:45:12.610Z,99371
2017-10-29T04:46:13.178Z,99359
2017-10-29T04:47:13.164Z,99355
2017-10-29T04:48:13.200Z,99354
2017-10-29T04:49:12.738Z,99356
2017-10-29T04:50:12.779Z,99362
2017-10-29T04:51:12.873Z,99354
2017-10-29T04:52:12.949Z,99360
2017-10-29T04:53:13.466Z,99353
2017-10-29T04:54:13.499Z,99355
2017-10-29T04:55:13.541Z,99352
2017-10-29T04:56:13.690Z,99357
2017-10-29T04:57:13.635Z,99361
2017-10-29T04:58:13.288Z,99367
2017-10-29T04:59:13.197Z,99362
2017-10-29T05:00:13.324Z,99364
2017-10-29T05:01:13.828Z,99366
2017-10-29T05:02:13.894Z,99368
2017-10-29T05:03:14.029Z,99371
2017-10-29T05:04:13.935Z,99366
2017-10-29T05:05:14.036Z,99375
2017-10-29T05:06:13.675Z,99375
2017-10-29T05:07:13.690Z,99371
2017-10-29T05:08:14.215Z,99377
2017-10-29T05:09:13.633Z,99369
2017-10-29T05:10:14.298Z,99372
2017-10-29T05:11:14.226Z,99364
2017-10-29T05:12:13.891Z,99368
2017-10-29T05:13:13.862Z,99370
2017-10-29T05:14:14.464Z,99366
2017-10-29T05:15:14.620Z,99366
2017-10-29T05:16:14.602Z,99377
2017-10-29T05:17:14.793Z,99395
2017-10-29T05:18:14.288Z,99377
2017-10-29T05:19:14.755Z,99382
2017-10-29T05:20:14.868Z,99400
2017-10-29T05:21:14.916Z,99402
2017-10-29T05:22:14.371Z,99392
2017-10-29T05:23:14.820Z,99394
2017-10-29T05:24:14.401Z,99403
2017-10-29T05:25:14.825Z,99406
2017-10-29T05:26:14.333Z,99416
2017-10-29T05:27:15.021Z,99410
2017-10-29T05:28:14.408Z,99413
2017-10-29T05:29:14.425Z,99419
2017-10-29T05:30:14.616Z,99429
2017-10-29T05:31:15.147Z,99427
2017-10-29T05:32:14.700Z,99433
2017-10-29T05:33:14.672Z,99441
2017-10-29T05:34:15.247Z,99444
2017-10-29T05:35:15.373Z,99445
2017-10-29T05:36:15.332Z,99442
2017-10-29T05:37:15.379Z,99443
2017-10-29T05:38:14.883Z,99447
2017-10-29T05:39:14.923Z,99438
2017-10-29T05:40:15.047Z,99457
2017-10-29T05:41:15.538Z,99450
2017-10-29T05:42:15.551Z,99460
2017-10-29T05:43:15.683Z,99471
2017-10-29T05:44:15.789Z,99468
2017-10-29T05:45:15.663Z,99463
2017-10-29T05:46:15.777Z,99480
2017-10-29T05:47:15.463Z,99476
2017-10-29T05:48:15.871Z,99476
2017-10-29T05:49:15.461Z,99471
2017-10-29T05:50:15.902Z,99482
2017-10-29T05:51:15.967Z,99477
2017-10-29T05:52:16.005Z,99495
2017-10-29T05:53:15.553Z,99479
2017-10-29T05:54:16.114Z,99484
2017-10-29T05:55:16.133Z,99480
2017-10-29T05:56:16.050Z,99486
2017-10-29T05:57:16.120Z,99488
2017-10-29T05:58:15.654Z,99491
2017-10-29T05:59:16.361Z,99490
2017-10-29T06:00:15.741Z,99494
2017-10-29T06:01:15.911Z,99501
2017-10-29T06:02:16.349Z,99503
2017-10-29T06:03:16.460Z,99488
2017-10-29T06:04:15.846Z,99510
2017-10-29T06:05:16.546Z,99505
2017-10-29T06:06:16.486Z,99499
2017-10-29T06:07:16.061Z,99507
2017-10-29T06:08:16.707Z,99507
2017-10-29T06:09:16.119Z,99519
2017-10-29T06:10:16.691Z,99507
2017-10-29T06:11:16.746Z,99516
2017-10-29T06:12:16.796Z,99512
2017-10-29T06:13:16.935Z,99529
2017-10-29T06:14:16.440Z,99528
2017-10-29T06:15:16.415Z,99522
2017-10-29T06:16:17.053Z,99538
2017-10-29T06:17:17.136Z,99547
2017-10-29T06:18:17.146Z,99547
2017-10-29T06:19:17.238Z,99559
2017-10-29T06:20:17.189Z,99557
2017-10-29T06:21:17.332Z,99567
2017-10-29T06:22:16.726Z,99561
2017-10-29T06:23:16.711Z,99577
2017-10-29T06:24:17.311Z,99592
2017-10-29T06:25:17.427Z,99590
2017-10-29T06:26:16.919Z,99598
2017-10-29T06:27:16.887Z,99597
2017-10-29T06:28:17.616Z,99589
2017-10-29T06:29:17.091Z,99597
2017-10-29T06:30:17.558Z,99588
2017-10-29T06:31:17.050Z,99598
2017-10-29T06:32:17.118Z,99601
2017-10-29T06:33:17.156Z,99597
2017-10-29T06:34:17.323Z,99600
2017-10-29T06:35:17.927Z,99608
2017-10-29T06:36:17.343Z,99621
2017-10-29T06:37:17.901Z,99615
2017-10-29T06:38:18.082Z,99617
2017-10-29T06:39:18.021Z,99621
2017-10-29T06:40:18.231Z,99626
2017-10-29T06:41:18.324Z,99627
2017-10-29T06:42:17.680Z,99624
2017-10-29T06:43:17.780Z,99625
2017-10-29T06:44:18.346Z,99630
2017-10-29T06:45:18.441Z,99619
2017-10-29T06:46:18.629Z,99625
2017-10-29T06:47:18.017Z,99627
2017-10-29T06:48:18.122Z,99632
2017-10-29T06:49:18.222Z,99635
2017-10-29T06:50:18.753Z,99640
2017-10-29T06:51:18.256Z,99642
2017-10-29T06:52:18.912Z,99642
2017-10-29T06:53:18.267Z,99642
2017-10-29T06:54:18.977Z,99644
2017-10-29T06:55:18.406Z,99644
2017-10-29T06:56:18.474Z,99661
2017-10-29T06:57:19.050Z,99666
2017-10-29T06:58:19.184Z,99652
2017-10-29T06:59:18.712Z,99668
2017-10-29T07:00:18.717Z,99680
2017-10-29T07:01:18.642Z,99677
2017-10-29T07:02:19.385Z,99666
2017-10-29T07:03:19.280Z,99685
2017-10-29T07:04:18.798Z,99677
2017-10-29T07:05:18.975Z,99686
2017-10-29T07:06:19.604Z,99676
2017-10-29T07:07:19.101Z,99674
2017-10-29T07:08:19.677Z,99685
2017-10-29T07:09:19.187Z,99691
2017-10-29T07:10:19.159Z,99694
2017-10-29T07:11:19.157Z,99692
2017-10-29T07:12:19.730Z,99698
2017-10-29T07:13:19.756Z,99706
2017-10-29T07:14:19.414Z,99701
2017-10-29T07:15:19.890Z,99711
2017-10-29T07:16:20.027Z,99715
2017-10-29T07:17:19.984Z,99710
2017-10-29T07:18:20.072Z,99715
2017-10-29T07:19:19.596Z,99716
2017-10-29T07:20:19.628Z,99716
2017-10-29T07:21:19.700Z,99728
2017-10-29T07:22:20.290Z,99727
2017-10-29T07:23:20.322Z,99736
2017-10-29T07:24:19.991Z,99738
2017-10-29T07:25:20.044Z,99735
2017-10-29T07:26:20.609Z,99740
2017-10-29T07:27:20.130Z,99731
2017-10-29T07:28:20.664Z,99734
2017-10-29T07:29:20.725Z,99745
2017-10-29T07:30:20.769Z,99755
2017-10-29T07:31:20.806Z,99747
2017-10-29T07:32:20.951Z,99747
2017-10-29T07:33:20.455Z,99752
2017-10-29T07:34:20.384Z,99746
2017-10-29T07:35:20.549Z,99755
2017-10-29T07:36:21.129Z,99757
2017-10-29T07:37:21.207Z,99765
2017-10-29T07:38:20.569Z,99767
2017-10-29T07:39:21.180Z,99773
2017-10-29T07:40:20.732Z,99771
2017-10-29T07:41:20.844Z,99767
2017-10-29T07:42:20.844Z,99780
2017-10-29T07:43:21.453Z,99775
2017-10-29T07:44:21.058Z,99766
2017-10-29T07:45:21.503Z,99769
2017-10-29T07:46:21.073Z,99778
2017-10-29T07:47:21.623Z,99778
2017-10-29T07:48:21.146Z,99781
2017-10-29T07:49:21.618Z,99796
2017-10-29T07:50:21.674Z,99791
2017-10-29T07:51:21.728Z,99807
2017-10-29T07:52:21.358Z,99797
2017-10-29T07:53:21.332Z,99794
2017-10-29T07:54:21.476Z,99807
2017-10-29T07:55:22.055Z,99812
2017-10-29T07:56:22.005Z,99813
2017-10-29T07:57:22.034Z,99801
2017-10-29T07:58:21.617Z,99804
2017-10-29T07:59:22.211Z,99811
2017-10-29T08:00:21.699Z,99812
2017-10-29T08:01:22.336Z,99817
2017-10-29T08:02:22.362Z,99815
2017-10-29T08:03:22.409Z,99819
2017-10-29T08:04:21.877Z,99818
2017-10-29T08:05:22.447Z,99810
2017-10-29T08:06:21.958Z,99813
2017-10-29T08:07:22.398Z,99811
2017-10-29T08:08:21.961Z,99823
2017-10-29T08:09:21.999Z,99820
2017-10-29T08:10:22.109Z,99824
2017-10-29T08:11:22.601Z,99822
2017-10-29T08:12:22.805Z,99823
2017-10-29T08:13:22.225Z,99830
2017-10-29T08:14:22.340Z,99822
2017-10-29T08:15:22.896Z,99826
2017-10-29T08:16:22.361Z,99839
2017-10-29T08:17:22.837Z,99825
2017-10-29T08:18:22.472Z,99834
2017-10-29T08:19:22.997Z,99833
2017-10-29T08:20:23.153Z,99837
2017-10-29T08:21:22.578Z,99833
2017-10-29T08:22:22.748Z,99834
2017-10-29T08:23:23.378Z,99837
2017-10-29T08:24:22.848Z,99846
2017-10-29T08:25:22.926Z,99847
2017-10-29T08:26:22.997Z,99847
2017-10-29T08:27:23.085Z,99852
2017-10-29T08:28:23.249Z,99856
2017-10-29T08:29:23.722Z,99848
2017-10-29T08:30:23.883Z,99859
2017-10-29T08:31:23.411Z,99864
2017-10-29T08:32:23.405Z,99870
2017-10-29T08:33:23.916Z,99871
2017-10-29T08:34:23.947Z,99865
2017-10-29T08:35:23.456Z,99865
2017-10-29T08:36:23.626Z,99874
2017-10-29T08:37:23.616Z,99874
2017-10-29T08:38:24.329Z,99881
2017-10-29T08:39:24.269Z,99882
2017-10-29T08:40:24.393Z,99887
2017-10-29T08:41:24.366Z,99872
2017-10-29T08:42:24.561Z,99889
2017-10-29T08:43:24.601Z,99892
2017-10-29T08:44:24.638Z,99882
2017-10-29T08:45:24.645Z,99885
2017-10-29T08:46:24.077Z,99886
2017-10-29T08:47:24.223Z,99893
2017-10-29T08:48:24.203Z,99893
2017-10-29T08:49:24.314Z,99890
2017-10-29T08:50:24.274Z,99901
2017-10-29T08:52:24.837Z,99887
2017-10-29T08:53:24.473Z,99906
2017-10-29T08:54:24.533Z,99897
2017-10-29T08:55:25.006Z,99906
2017-10-29T08:56:25.058Z,99911
2017-10-29T08:57:24.645Z,99918
2017-10-29T08:58:25.251Z,99899
2017-10-29T08:59:24.700Z,99920
2017-10-29T09:00:24.839Z,99916
2017-10-29T09:01:25.427Z,99924
2017-10-29T09:02:25.342Z,99919
2017-10-29T09:03:25.429Z,99919
2017-10-29T09:04:24.946Z,99922
2017-10-29T09:05:24.936Z,99928
2017-10-29T09:06:25.116Z,99928
2017-10-29T09:07:25.619Z,99920
2017-10-29T09:08:25.748Z,99919
2017-10-29T09:09:25.261Z,99929
2017-10-29T09:10:25.212Z,99921
2017-10-29T09:11:25.373Z,99927
2017-10-29T09:12:26.012Z,99920
2017-10-29T09:13:25.995Z,99928
2017-10-29T09:14:26.107Z,99936
2017-10-29T09:15:26.140Z,99927
2017-10-29T09:16:26.246Z,99927
2017-10-29T09:17:26.157Z,99918
2017-10-29T09:18:26.355Z,99934
2017-10-29T09:19:25.811Z,99949
2017-10-29T09:20:25.876Z,99947
2017-10-29T09:21:26.439Z,99953
2017-10-29T09:22:25.853Z,99959
2017-10-29T09:23:26.051Z,99952
2017-10-29T09:24:26.140Z,99955
2017-10-29T09:25:26.133Z,99966
2017-10-29T09:26:26.090Z,99962
2017-10-29T09:27:26.266Z,99963
2017-10-29T09:28:26.338Z,99967
2017-10-29T09:29:26.989Z,99955
2017-10-29T09:30:26.472Z,99973
2017-10-29T09:31:26.433Z,99967
2017-10-29T09:32:27.119Z,99969
2017-10-29T09:33:26.551Z,99969
2017-10-29T09:34:26.655Z,99966
2017-10-29T09:35:27.123Z,99971
2017-10-29T09:36:27.187Z,99977
2017-10-29T09:37:26.744Z,99971
2017-10-29T09:38:27.393Z,99981
2017-10-29T09:39:26.830Z,99977
2017-10-29T09:40:26.885Z,99980
2017-10-29T09:41:27.019Z,99985
2017-10-29T09:42:27.053Z,99980
2017-10-29T09:43:27.531Z,99986
2017-10-29T09:44:27.149Z,99995
2017-10-29T09:45:27.595Z,99991
2017-10-29T09:46:27.096Z,99990
2017-10-29T09:47:27.197Z,99990
2017-10-29T09:48:27.811Z,99992
2017-10-29T09:49:27.262Z,99988
2017-10-29T09:50:27.366Z,99997
2017-10-29T09:51:27.855Z,99991
2017-10-29T09:52:27.485Z,100001
2017-10-29T09:53:27.944Z,100001
2017-10-29T09:54:27.457Z,100005
2017-10-29T09:55:27.553Z,100010
2017-10-29T09:56:27.636Z,100004
2017-10-29T09:57:28.096Z,100004
2017-10-29T09:58:27.635Z,100005
2017-10-29T09:59:27.646Z,100006
2017-10-29T10:00:27.850Z,100000
2017-10-29T10:01:28.290Z,100000
2017-10-29T10:02:27.880Z,100008
2017-10-29T10:03:27.815Z,100007
2017-10-29T10:04:28.455Z,100011
2017-10-29T10:05:27.968Z,100013
2017-10-29T10:06:28.084Z,100010
2017-10-29T10:07:28.109Z,100019
2017-10-29T10:08:28.655Z,100015
2017-10-29T10:09:28.178Z,100024
2017-10-29T10:10:28.783Z,100025
2017-10-29T10:11:28.858Z,100027
2017-10-29T10:12:28.883Z,100030
2017-10-29T10:13:28.343Z,100020
2017-10-29T10:14:28.938Z,100035
2017-10-29T10:15:29.124Z,100039
2017-10-29T10:16:29.082Z,100025
2017-10-29T10:17:28.606Z,100034
2017-10-29T10:18:28.704Z,100038
2017-10-29T10:19:29.251Z,100045
2017-10-29T10:20:29.300Z,100049
2017-10-29T10:21:28.691Z,100060
2017-10-29T10:22:29.334Z,100056
2017-10-29T10:23:29.396Z,100057
2017-10-29T10:24:29.451Z,100061
2017-10-29T10:25:28.832Z,100053
2017-10-29T10:26:28.911Z,100062
2017-10-29T10:27:29.024Z,100050
2017-10-29T10:28:29.112Z,100067
2017-10-29T10:29:29.729Z,100064
2017-10-29T10:30:29.233Z,100069
2017-10-29T10:31:29.869Z,100072
2017-10-29T10:32:29.870Z,100074
2017-10-29T10:33:29.341Z,100079
2017-10-29T10:34:30.078Z,100086
2017-10-29T10:35:30.108Z,100088
2017-10-29T10:36:29.568Z,100098
2017-10-29T10:37:29.648Z,100090
2017-10-29T10:38:30.179Z,100091
2017-10-29T10:39:30.304Z,100083
2017-10-29T10:40:29.816Z,100088
2017-10-29T10:41:30.274Z,100090
2017-10-29T10:42:30.437Z,100092
2017-10-29T10:43:29.850Z,100082
2017-10-29T10:44:29.944Z,100080
2017-10-29T10:45:29.939Z,100095
2017-10-29T10:46:30.032Z,100085
2017-10-29T10:47:30.575Z,100087
2017-10-29T10:48:30.677Z,100092
2017-10-29T10:49:30.752Z,100089
2017-10-29T10:50:30.323Z,100107
2017-10-29T10:51:30.255Z,100093
2017-10-29T10:52:30.286Z,100095
2017-10-29T10:53:30.393Z,100091
2017-10-29T10:54:30.409Z,100098
2017-10-29T10:55:30.458Z,100104
2017-10-29T10:56:30.509Z,100096
2017-10-29T10:57:30.971Z,100088
2017-10-29T10:58:30.467Z,100096
2017-10-29T10:59:31.186Z,100098
2017-10-29T11:00:30.676Z,100099
2017-10-29T11:01:30.733Z,100097
2017-10-29T11:02:31.194Z,100098
2017-10-29T11:03:31.377Z,100099
2017-10-29T11:04:31.457Z,100100
2017-10-29T11:05:31.398Z,100096
2017-10-29T11:06:31.536Z,100095
2017-10-29T11:07:31.490Z,100094
2017-10-29T11:08:31.120Z,100099
2017-10-29T11:09:31.179Z,100104
2017-10-29T11:10:31.129Z,100108
2017-10-29T11:11:31.725Z,100090
2017-10-29T11:12:31.203Z,100096
2017-10-29T11:13:31.760Z,100089
2017-10-29T11:14:31.390Z,100102
2017-10-29T11:15:31.995Z,100095
2017-10-29T11:16:31.957Z,100092
2017-10-29T11:17:31.591Z,100090
2017-10-29T11:18:32.114Z,100092
2017-10-29T11:19:32.228Z,100096
2017-10-29T11:20:31.795Z,100076
2017-10-29T11:21:31.706Z,100089
2017-10-29T11:22:32.437Z,100086
2017-10-29T11:23:31.957Z,100075
2017-10-29T11:24:32.017Z,100080
2017-10-29T11:25:32.101Z,100076
2017-10-29T11:26:32.581Z,100082
2017-10-29T11:27:32.638Z,100092
2017-10-29T11:28:32.127Z,100089
2017-10-29T11:29:32.739Z,100091
2017-10-29T11:30:32.782Z,100095
2017-10-29T11:31:32.313Z,100096
2017-10-29T11:32:32.361Z,100084
2017-10-29T11:33:32.458Z,100079
2017-10-29T11:34:32.948Z,100093
2017-10-29T11:35:33.000Z,100090
2017-10-29T11:36:33.038Z,100092
2017-10-29T11:37:32.615Z,100082
2017-10-29T11:38:33.134Z,100080
2017-10-29T11:39:33.179Z,100075
2017-10-29T11:40:32.782Z,100083
2017-10-29T11:41:32.698Z,100097
2017-10-29T11:42:33.432Z,100093
2017-10-29T11:43:33.408Z,100082
2017-10-29T11:44:33.015Z,100092
2017-10-29T11:45:33.504Z,100099
2017-10-29T11:46:33.555Z,100100
2017-10-29T11:47:33.164Z,100100
2017-10-29T11:48:33.808Z,100100
2017-10-29T11:49:33.880Z,100099
2017-10-29T11:50:33.335Z,100084
2017-10-29T11:51:33.885Z,100098
2017-10-29T11:52:33.361Z,100098
2017-10-29T11:53:33.511Z,100099
2017-10-29T11:54:33.592Z,100104
2017-10-29T11:55:33.657Z,100106
2017-10-29T11:56:33.612Z,100110
2017-10-29T11:57:34.182Z,100116
2017-10-29T11:58:33.801Z,100112
2017-10-29T11:59:34.401Z,100119
2017-10-29T12:00:34.396Z,100118
2017-10-29T12:01:33.839Z,100130
2017-10-29T12:02:34.593Z,100134
2017-10-29T12:03:34.121Z,100128
2017-10-29T12:04:34.130Z,100133
2017-10-29T12:05:34.212Z,100127
2017-10-29T12:06:34.690Z,100125
2017-10-29T12:07:34.263Z,100128
2017-10-29T12:08:34.715Z,100137
2017-10-29T12:09:34.916Z,100137
2017-10-29T12:10:34.392Z,100136
2017-10-29T12:11:34.861Z,100140
2017-10-29T12:12:34.456Z,100143
2017-10-29T12:13:34.551Z,100153
2017-10-29T12:14:35.010Z,100154
2017-10-29T12:15:34.654Z,100155
2017-10-29T12:16:35.162Z,100148
2017-10-29T12:17:35.294Z,100159
2017-10-29T12:18:35.320Z,100167
2017-10-29T12:19:34.795Z,100162
2017-10-29T12:20:35.378Z,100160
2017-10-29T12:21:34.877Z,100157
2017-10-29T12:22:34.842Z,100150
2017-10-29T12:23:35.418Z,100154
2017-10-29T12:24:34.982Z,100159
2017-10-29T12:25:35.000Z,100151
2017-10-29T12:26:35.098Z,100151
2017-10-29T12:27:35.166Z,100152
2017-10-29T12:28:35.261Z,100158
2017-10-29T12:29:35.870Z,100159
2017-10-29T12:30:35.406Z,100159
2017-10-29T12:31:35.417Z,100154
2017-10-29T12:32:36.068Z,100164
2017-10-29T12:33:36.112Z,100164
2017-10-29T12:34:36.119Z,100170
2017-10-29T12:35:35.607Z,100173
2017-10-29T12:36:36.083Z,100168
2017-10-29T12:37:36.173Z,100162
2017-10-29T12:38:35.637Z,100170
2017-10-29T12:39:36.233Z,100159
2017-10-29T12:40:36.294Z,100163
2017-10-29T12:41:35.860Z,100164
2017-10-29T12:42:35.917Z,100164
2017-10-29T12:43:36.649Z,100166
2017-10-29T12:44:36.149Z,100172
2017-10-29T12:45:36.237Z,100167
2017-10-29T12:46:36.277Z,100182
2017-10-29T12:47:36.254Z,100181
2017-10-29T12:48:36.326Z,100180
2017-10-29T12:49:37.049Z,100178